sensor_id;sensor_type;location;lat;lon;timestamp;P1;durP1;ratioP1;P2;durP2;ratioP2
58222;SDS011;44020;50.890;15.796;2023-01-16T00:01:52;26.70;;;12.50;;
58222;SDS011;44020;50.890;15.796;2023-01-16T00:04:22;29.80;;;12.00;;
58222;SDS011;44020;50.890;15.796;2023-01-16T00:06:50;11.00;;;4.50;;
58222;SDS011;44020;50.890;15.796;2023-01-16T00:09:18;6.80;;;2.40;;
58222;SDS011;44020;50.890;15.796;2023-01-16T00:11:46;4.30;;;1.50;;
58222;SDS011;44020;50.890;15.796;2023-01-16T00:14:13;1.40;;;0.70;;
58222;SDS011;44020;50.890;15.796;2023-01-16T00:16:41;2.10;;;0.80;;
58222;SDS011;44020;50.890;15.796;2023-01-16T00:19:08;1.70;;;0.90;;
58222;SDS011;44020;50.890;15.796;2023-01-16T00:21:35;2.20;;;0.70;;
58222;SDS011;44020;50.890;15.796;2023-01-16T00:24:02;4.20;;;1.40;;
58222;SDS011;44020;50.890;15.796;2023-01-16T00:26:33;5.80;;;1.60;;
58222;SDS011;44020;50.890;15.796;2023-01-16T00:29:01;2.00;;;1.00;;
58222;SDS011;44020;50.890;15.796;2023-01-16T00:31:29;1.50;;;0.50;;
58222;SDS011;44020;50.890;15.796;2023-01-16T00:33:56;2.90;;;0.80;;
58222;SDS011;44020;50.890;15.796;2023-01-16T00:36:24;1.70;;;0.50;;
58222;SDS011;44020;50.890;15.796;2023-01-16T00:38:51;2.20;;;0.70;;
58222;SDS011;44020;50.890;15.796;2023-01-16T00:41:19;2.40;;;1.10;;
58222;SDS011;44020;50.890;15.796;2023-01-16T00:43:46;3.10;;;1.30;;
58222;SDS011;44020;50.890;15.796;2023-01-16T00:46:13;3.30;;;1.60;;
58222;SDS011;44020;50.890;15.796;2023-01-16T00:48:41;2.00;;;1.00;;
58222;SDS011;44020;50.890;15.796;2023-01-16T00:51:08;3.70;;;1.00;;
58222;SDS011;44020;50.890;15.796;2023-01-16T00:53:36;1.80;;;0.80;;
58222;SDS011;44020;50.890;15.796;2023-01-16T00:56:03;2.00;;;1.00;;
58222;SDS011;44020;50.890;15.796;2023-01-16T00:58:31;3.10;;;0.80;;
58222;SDS011;44020;50.890;15.796;2023-01-16T01:00:59;1.60;;;0.70;;
58222;SDS011;44020;50.890;15.796;2023-01-16T01:03:29;1.00;;;0.70;;
58222;SDS011;44020;50.890;15.796;2023-01-16T01:05:57;1.80;;;0.90;;
58222;SDS011;44020;50.890;15.796;2023-01-16T01:08:25;1.90;;;0.70;;
58222;SDS011;44020;50.890;15.796;2023-01-16T01:10:52;1.10;;;0.70;;
58222;SDS011;44020;50.890;15.796;2023-01-16T01:13:21;1.90;;;0.70;;
58222;SDS011;44020;50.890;15.796;2023-01-16T01:15:48;1.70;;;0.80;;
58222;SDS011;44020;50.890;15.796;2023-01-16T01:18:16;2.80;;;1.00;;
58222;SDS011;44020;50.890;15.796;2023-01-16T01:20:43;2.40;;;0.90;;
58222;SDS011;44020;50.890;15.796;2023-01-16T01:23:10;2.90;;;1.00;;
58222;SDS011;44020;50.890;15.796;2023-01-16T01:25:38;4.40;;;1.00;;
58222;SDS011;44020;50.890;15.796;2023-01-16T01:28:05;1.80;;;0.70;;
58222;SDS011;44020;50.890;15.796;2023-01-16T01:30:33;3.70;;;0.90;;
58222;SDS011;44020;50.890;15.796;2023-01-16T01:33:00;1.00;;;0.50;;
58222;SDS011;44020;50.890;15.796;2023-01-16T01:35:27;1.60;;;0.80;;
58222;SDS011;44020;50.890;15.796;2023-01-16T01:37:55;2.00;;;0.80;;
58222;SDS011;44020;50.890;15.796;2023-01-16T01:40:22;2.00;;;0.70;;
58222;SDS011;44020;50.890;15.796;2023-01-16T01:42:50;3.50;;;0.80;;
58222;SDS011;44020;50.890;15.796;2023-01-16T01:45:30;3.20;;;0.60;;
58222;SDS011;44020;50.890;15.796;2023-01-16T01:48:11;3.20;;;0.50;;
58222;SDS011;44020;50.890;15.796;2023-01-16T01:51:12;1.60;;;0.80;;
58222;SDS011;44020;50.890;15.796;2023-01-16T01:53:55;2.80;;;0.80;;
58222;SDS011;44020;50.890;15.796;2023-01-16T01:56:34;2.10;;;0.70;;
58222;SDS011;44020;50.890;15.796;2023-01-16T01:59:12;1.70;;;0.70;;
58222;SDS011;44020;50.890;15.796;2023-01-16T02:01:44;1.40;;;0.60;;
58222;SDS011;44020;50.890;15.796;2023-01-16T02:04:18;1.20;;;0.60;;
58222;SDS011;44020;50.890;15.796;2023-01-16T02:06:51;2.60;;;0.80;;
58222;SDS011;44020;50.890;15.796;2023-01-16T02:09:22;2.30;;;0.70;;
58222;SDS011;44020;50.890;15.796;2023-01-16T02:12:26;2.00;;;0.70;;
58222;SDS011;44020;50.890;15.796;2023-01-16T02:14:46;2.40;;;0.70;;
58222;SDS011;44020;50.890;15.796;2023-01-16T02:17:17;3.50;;;0.80;;
58222;SDS011;44020;50.890;15.796;2023-01-16T02:34:52;2.50;;;0.60;;
58222;SDS011;44020;50.890;15.796;2023-01-16T02:42:43;2.40;;;0.70;;
58222;SDS011;44020;50.890;15.796;2023-01-16T02:45:28;1.50;;;0.60;;
58222;SDS011;44020;50.890;15.796;2023-01-16T02:48:06;2.90;;;0.90;;
58222;SDS011;44020;50.890;15.796;2023-01-16T02:50:38;1.40;;;0.70;;
58222;SDS011;44020;50.890;15.796;2023-01-16T02:53:19;1.80;;;0.70;;
58222;SDS011;44020;50.890;15.796;2023-01-16T02:55:58;2.00;;;0.70;;
58222;SDS011;44020;50.890;15.796;2023-01-16T02:58:38;1.70;;;0.80;;
58222;SDS011;44020;50.890;15.796;2023-01-16T03:01:10;3.90;;;0.80;;
58222;SDS011;44020;50.890;15.796;2023-01-16T03:03:41;2.20;;;0.60;;
58222;SDS011;44020;50.890;15.796;2023-01-16T03:06:41;1.30;;;0.50;;
58222;SDS011;44020;50.890;15.796;2023-01-16T03:14:33;1.50;;;0.70;;
58222;SDS011;44020;50.890;15.796;2023-01-16T03:20:34;3.20;;;1.00;;
58222;SDS011;44020;50.890;15.796;2023-01-16T03:26:01;2.90;;;0.80;;
58222;SDS011;44020;50.890;15.796;2023-01-16T03:31:26;1.00;;;0.50;;
58222;SDS011;44020;50.890;15.796;2023-01-16T03:39:37;2.80;;;0.60;;
58222;SDS011;44020;50.890;15.796;2023-01-16T03:42:10;1.90;;;0.70;;
58222;SDS011;44020;50.890;15.796;2023-01-16T03:44:51;2.20;;;0.70;;
58222;SDS011;44020;50.890;15.796;2023-01-16T03:47:24;2.50;;;0.80;;
58222;SDS011;44020;50.890;15.796;2023-01-16T03:49:58;2.70;;;0.80;;
58222;SDS011;44020;50.890;15.796;2023-01-16T03:52:32;2.00;;;0.70;;
58222;SDS011;44020;50.890;15.796;2023-01-16T03:55:28;2.00;;;0.70;;
58222;SDS011;44020;50.890;15.796;2023-01-16T03:58:09;3.80;;;1.30;;
58222;SDS011;44020;50.890;15.796;2023-01-16T04:00:50;3.20;;;1.30;;
58222;SDS011;44020;50.890;15.796;2023-01-16T04:03:21;3.70;;;1.30;;
58222;SDS011;44020;50.890;15.796;2023-01-16T04:08:25;4.10;;;1.40;;
58222;SDS011;44020;50.890;15.796;2023-01-16T04:10:59;3.00;;;1.10;;
58222;SDS011;44020;50.890;15.796;2023-01-16T04:13:28;4.00;;;1.40;;
58222;SDS011;44020;50.890;15.796;2023-01-16T04:16:00;3.20;;;1.40;;
58222;SDS011;44020;50.890;15.796;2023-01-16T04:18:32;2.80;;;1.40;;
58222;SDS011;44020;50.890;15.796;2023-01-16T04:21:05;2.00;;;0.90;;
58222;SDS011;44020;50.890;15.796;2023-01-16T04:23:34;3.30;;;1.10;;
58222;SDS011;44020;50.890;15.796;2023-01-16T04:26:02;5.50;;;1.70;;
58222;SDS011;44020;50.890;15.796;2023-01-16T04:28:30;3.90;;;1.30;;
58222;SDS011;44020;50.890;15.796;2023-01-16T04:30:57;3.60;;;1.30;;
58222;SDS011;44020;50.890;15.796;2023-01-16T04:33:24;5.20;;;1.30;;
58222;SDS011;44020;50.890;15.796;2023-01-16T04:35:55;3.50;;;0.90;;
58222;SDS011;44020;50.890;15.796;2023-01-16T04:38:22;3.50;;;1.00;;
58222;SDS011;44020;50.890;15.796;2023-01-16T04:40:52;4.80;;;1.20;;
58222;SDS011;44020;50.890;15.796;2023-01-16T04:43:20;7.20;;;1.40;;
58222;SDS011;44020;50.890;15.796;2023-01-16T04:45:48;3.50;;;1.00;;
58222;SDS011;44020;50.890;15.796;2023-01-16T04:48:16;3.90;;;1.20;;
58222;SDS011;44020;50.890;15.796;2023-01-16T04:50:46;5.50;;;1.00;;
58222;SDS011;44020;50.890;15.796;2023-01-16T04:53:15;2.90;;;0.70;;
58222;SDS011;44020;50.890;15.796;2023-01-16T04:55:43;1.80;;;0.60;;
58222;SDS011;44020;50.890;15.796;2023-01-16T04:58:10;3.00;;;1.10;;
58222;SDS011;44020;50.890;15.796;2023-01-16T05:00:37;3.10;;;1.20;;
58222;SDS011;44020;50.890;15.796;2023-01-16T05:03:04;5.50;;;1.80;;
58222;SDS011;44020;50.890;15.796;2023-01-16T05:05:32;4.50;;;1.10;;
58222;SDS011;44020;50.890;15.796;2023-01-16T05:07:59;3.70;;;1.40;;
58222;SDS011;44020;50.890;15.796;2023-01-16T05:10:45;1.80;;;0.90;;
58222;SDS011;44020;50.890;15.796;2023-01-16T05:13:12;2.30;;;0.90;;
58222;SDS011;44020;50.890;15.796;2023-01-16T05:15:41;1.90;;;0.90;;
58222;SDS011;44020;50.890;15.796;2023-01-16T05:18:10;1.70;;;0.70;;
58222;SDS011;44020;50.890;15.796;2023-01-16T05:20:38;2.10;;;0.80;;
58222;SDS011;44020;50.890;15.796;2023-01-16T05:23:07;3.50;;;0.70;;
58222;SDS011;44020;50.890;15.796;2023-01-16T05:25:37;1.90;;;0.40;;
58222;SDS011;44020;50.890;15.796;2023-01-16T05:28:05;5.40;;;1.60;;
58222;SDS011;44020;50.890;15.796;2023-01-16T05:30:33;7.50;;;3.10;;
58222;SDS011;44020;50.890;15.796;2023-01-16T05:33:00;3.20;;;1.00;;
58222;SDS011;44020;50.890;15.796;2023-01-16T05:35:28;3.70;;;0.90;;
58222;SDS011;44020;50.890;15.796;2023-01-16T05:37:56;2.50;;;0.70;;
58222;SDS011;44020;50.890;15.796;2023-01-16T05:40:23;2.70;;;0.80;;
58222;SDS011;44020;50.890;15.796;2023-01-16T05:42:50;2.00;;;0.70;;
58222;SDS011;44020;50.890;15.796;2023-01-16T05:45:17;2.30;;;0.70;;
58222;SDS011;44020;50.890;15.796;2023-01-16T05:47:45;2.90;;;0.90;;
58222;SDS011;44020;50.890;15.796;2023-01-16T05:50:12;1.60;;;0.80;;
58222;SDS011;44020;50.890;15.796;2023-01-16T05:52:39;2.40;;;1.00;;
58222;SDS011;44020;50.890;15.796;2023-01-16T05:55:07;7.90;;;2.90;;
58222;SDS011;44020;50.890;15.796;2023-01-16T05:57:35;9.60;;;3.50;;
58222;SDS011;44020;50.890;15.796;2023-01-16T06:00:02;11.80;;;4.70;;
58222;SDS011;44020;50.890;15.796;2023-01-16T06:02:31;7.90;;;2.80;;
58222;SDS011;44020;50.890;15.796;2023-01-16T06:04:58;8.40;;;3.50;;
58222;SDS011;44020;50.890;15.796;2023-01-16T06:07:25;7.30;;;2.50;;
58222;SDS011;44020;50.890;15.796;2023-01-16T06:09:52;9.20;;;2.90;;
58222;SDS011;44020;50.890;15.796;2023-01-16T06:12:20;5.50;;;2.50;;
58222;SDS011;44020;50.890;15.796;2023-01-16T06:14:47;4.10;;;2.00;;
58222;SDS011;44020;50.890;15.796;2023-01-16T06:17:15;3.90;;;1.50;;
58222;SDS011;44020;50.890;15.796;2023-01-16T06:19:43;3.40;;;1.20;;
58222;SDS011;44020;50.890;15.796;2023-01-16T06:22:12;3.80;;;1.20;;
58222;SDS011;44020;50.890;15.796;2023-01-16T06:24:40;5.70;;;1.60;;
58222;SDS011;44020;50.890;15.796;2023-01-16T06:27:07;2.40;;;1.30;;
58222;SDS011;44020;50.890;15.796;2023-01-16T06:29:35;4.30;;;1.50;;
58222;SDS011;44020;50.890;15.796;2023-01-16T06:32:03;6.60;;;3.20;;
58222;SDS011;44020;50.890;15.796;2023-01-16T06:34:31;7.30;;;3.40;;
58222;SDS011;44020;50.890;15.796;2023-01-16T06:36:59;7.80;;;3.50;;
58222;SDS011;44020;50.890;15.796;2023-01-16T06:39:26;9.10;;;3.80;;
58222;SDS011;44020;50.890;15.796;2023-01-16T06:41:53;10.00;;;4.00;;
58222;SDS011;44020;50.890;15.796;2023-01-16T06:44:20;9.20;;;3.60;;
58222;SDS011;44020;50.890;15.796;2023-01-16T06:46:48;6.20;;;3.00;;
58222;SDS011;44020;50.890;15.796;2023-01-16T06:49:15;12.30;;;5.10;;
58222;SDS011;44020;50.890;15.796;2023-01-16T06:51:42;13.60;;;5.40;;
58222;SDS011;44020;50.890;15.796;2023-01-16T06:54:10;14.50;;;6.40;;
58222;SDS011;44020;50.890;15.796;2023-01-16T06:56:40;16.40;;;6.40;;
58222;SDS011;44020;50.890;15.796;2023-01-16T06:59:07;14.20;;;6.20;;
58222;SDS011;44020;50.890;15.796;2023-01-16T07:01:35;10.20;;;4.40;;
58222;SDS011;44020;50.890;15.796;2023-01-16T07:04:02;10.20;;;4.30;;
58222;SDS011;44020;50.890;15.796;2023-01-16T07:06:30;9.30;;;3.70;;
58222;SDS011;44020;50.890;15.796;2023-01-16T07:08:58;10.30;;;2.80;;
58222;SDS011;44020;50.890;15.796;2023-01-16T07:11:25;8.80;;;3.30;;
58222;SDS011;44020;50.890;15.796;2023-01-16T07:13:52;8.80;;;3.30;;
58222;SDS011;44020;50.890;15.796;2023-01-16T07:16:39;9.20;;;3.00;;
58222;SDS011;44020;50.890;15.796;2023-01-16T07:19:25;12.40;;;5.30;;
58222;SDS011;44020;50.890;15.796;2023-01-16T07:22:11;15.60;;;7.10;;
58222;SDS011;44020;50.890;15.796;2023-01-16T07:24:59;22.80;;;9.20;;
58222;SDS011;44020;50.890;15.796;2023-01-16T07:27:27;14.00;;;6.10;;
58222;SDS011;44020;50.890;15.796;2023-01-16T07:29:56;11.40;;;5.60;;
58222;SDS011;44020;50.890;15.796;2023-01-16T07:32:24;11.70;;;5.10;;
58222;SDS011;44020;50.890;15.796;2023-01-16T07:34:51;12.90;;;5.20;;
58222;SDS011;44020;50.890;15.796;2023-01-16T07:37:18;9.90;;;4.70;;
58222;SDS011;44020;50.890;15.796;2023-01-16T07:39:45;8.60;;;3.80;;
58222;SDS011;44020;50.890;15.796;2023-01-16T07:42:12;9.50;;;4.10;;
58222;SDS011;44020;50.890;15.796;2023-01-16T07:44:39;9.20;;;4.00;;
58222;SDS011;44020;50.890;15.796;2023-01-16T07:47:07;36.60;;;11.70;;
58222;SDS011;44020;50.890;15.796;2023-01-16T07:49:34;22.10;;;7.80;;
58222;SDS011;44020;50.890;15.796;2023-01-16T07:52:01;12.80;;;4.50;;
58222;SDS011;44020;50.890;15.796;2023-01-16T07:54:28;10.50;;;3.70;;
58222;SDS011;44020;50.890;15.796;2023-01-16T07:56:55;11.40;;;4.00;;
58222;SDS011;44020;50.890;15.796;2023-01-16T07:59:22;14.20;;;4.40;;
58222;SDS011;44020;50.890;15.796;2023-01-16T08:01:49;11.90;;;3.40;;
58222;SDS011;44020;50.890;15.796;2023-01-16T08:04:17;9.20;;;3.10;;
58222;SDS011;44020;50.890;15.796;2023-01-16T08:06:44;8.20;;;2.50;;
58222;SDS011;44020;50.890;15.796;2023-01-16T08:09:11;41.00;;;10.60;;
58222;SDS011;44020;50.890;15.796;2023-01-16T08:11:39;38.40;;;10.80;;
58222;SDS011;44020;50.890;15.796;2023-01-16T08:14:06;37.10;;;11.50;;
58222;SDS011;44020;50.890;15.796;2023-01-16T08:16:34;22.90;;;6.90;;
58222;SDS011;44020;50.890;15.796;2023-01-16T08:19:01;26.40;;;8.20;;
58222;SDS011;44020;50.890;15.796;2023-01-16T08:21:28;20.00;;;5.60;;
58222;SDS011;44020;50.890;15.796;2023-01-16T08:23:56;15.10;;;4.10;;
58222;SDS011;44020;50.890;15.796;2023-01-16T08:26:24;10.60;;;3.50;;
58222;SDS011;44020;50.890;15.796;2023-01-16T08:28:51;9.90;;;3.10;;
58222;SDS011;44020;50.890;15.796;2023-01-16T08:31:19;11.20;;;3.00;;
58222;SDS011;44020;50.890;15.796;2023-01-16T08:33:47;12.30;;;3.50;;
58222;SDS011;44020;50.890;15.796;2023-01-16T08:36:16;8.80;;;2.80;;
58222;SDS011;44020;50.890;15.796;2023-01-16T08:38:49;5.40;;;1.90;;
58222;SDS011;44020;50.890;15.796;2023-01-16T08:41:17;4.40;;;2.00;;
58222;SDS011;44020;50.890;15.796;2023-01-16T08:44:03;6.50;;;1.90;;
58222;SDS011;44020;50.890;15.796;2023-01-16T08:47:32;5.60;;;2.00;;
58222;SDS011;44020;50.890;15.796;2023-01-16T08:50:05;6.00;;;1.90;;
58222;SDS011;44020;50.890;15.796;2023-01-16T08:52:55;5.80;;;1.60;;
58222;SDS011;44020;50.890;15.796;2023-01-16T08:55:22;3.50;;;1.70;;
58222;SDS011;44020;50.890;15.796;2023-01-16T08:57:49;3.30;;;1.10;;
58222;SDS011;44020;50.890;15.796;2023-01-16T09:00:16;2.60;;;1.00;;
58222;SDS011;44020;50.890;15.796;2023-01-16T09:02:46;3.10;;;0.80;;
58222;SDS011;44020;50.890;15.796;2023-01-16T09:05:13;2.00;;;0.70;;
58222;SDS011;44020;50.890;15.796;2023-01-16T09:07:41;2.90;;;0.90;;
58222;SDS011;44020;50.890;15.796;2023-01-16T09:10:08;4.60;;;1.20;;
58222;SDS011;44020;50.890;15.796;2023-01-16T09:12:36;3.90;;;0.90;;
58222;SDS011;44020;50.890;15.796;2023-01-16T09:15:23;2.30;;;0.80;;
58222;SDS011;44020;50.890;15.796;2023-01-16T09:17:51;4.10;;;0.90;;
58222;SDS011;44020;50.890;15.796;2023-01-16T09:20:18;4.80;;;0.90;;
58222;SDS011;44020;50.890;15.796;2023-01-16T09:22:46;4.50;;;0.90;;
58222;SDS011;44020;50.890;15.796;2023-01-16T09:25:13;3.70;;;1.40;;
58222;SDS011;44020;50.890;15.796;2023-01-16T09:27:41;3.90;;;1.30;;
58222;SDS011;44020;50.890;15.796;2023-01-16T09:30:13;3.50;;;2.00;;
58222;SDS011;44020;50.890;15.796;2023-01-16T09:32:40;3.00;;;1.30;;
58222;SDS011;44020;50.890;15.796;2023-01-16T09:35:07;2.20;;;1.00;;
58222;SDS011;44020;50.890;15.796;2023-01-16T09:37:34;4.70;;;1.30;;
58222;SDS011;44020;50.890;15.796;2023-01-16T09:40:02;3.50;;;0.90;;
58222;SDS011;44020;50.890;15.796;2023-01-16T09:45:29;3.90;;;0.90;;
58222;SDS011;44020;50.890;15.796;2023-01-16T09:48:01;4.00;;;0.90;;
58222;SDS011;44020;50.890;15.796;2023-01-16T09:53:09;3.10;;;1.20;;
58222;SDS011;44020;50.890;15.796;2023-01-16T09:56:01;5.30;;;2.00;;
58222;SDS011;44020;50.890;15.796;2023-01-16T09:58:48;3.70;;;1.20;;
58222;SDS011;44020;50.890;15.796;2023-01-16T10:01:47;3.10;;;1.20;;
58222;SDS011;44020;50.890;15.796;2023-01-16T10:04:38;3.50;;;1.20;;
58222;SDS011;44020;50.890;15.796;2023-01-16T10:07:17;2.90;;;1.20;;
58222;SDS011;44020;50.890;15.796;2023-01-16T10:09:58;5.70;;;1.10;;
58222;SDS011;44020;50.890;15.796;2023-01-16T10:12:35;1.80;;;0.70;;
58222;SDS011;44020;50.890;15.796;2023-01-16T10:15:08;3.30;;;1.10;;
58222;SDS011;44020;50.890;15.796;2023-01-16T10:20:52;3.90;;;1.50;;
58222;SDS011;44020;50.890;15.796;2023-01-16T10:23:45;1.60;;;0.70;;
58222;SDS011;44020;50.890;15.796;2023-01-16T10:34:33;4.30;;;0.80;;
58222;SDS011;44020;50.890;15.796;2023-01-16T10:37:06;6.90;;;2.60;;
58222;SDS011;44020;50.890;15.796;2023-01-16T10:39:36;7.60;;;3.50;;
58222;SDS011;44020;50.890;15.796;2023-01-16T10:42:13;2.70;;;1.20;;
58222;SDS011;44020;50.890;15.796;2023-01-16T10:48:14;1.10;;;0.50;;
58222;SDS011;44020;50.890;15.796;2023-01-16T10:51:01;1.60;;;0.50;;
58222;SDS011;44020;50.890;15.796;2023-01-16T10:53:30;3.20;;;1.30;;
58222;SDS011;44020;50.890;15.796;2023-01-16T10:55:59;2.40;;;0.70;;
58222;SDS011;44020;50.890;15.796;2023-01-16T10:58:28;1.50;;;0.60;;
58222;SDS011;44020;50.890;15.796;2023-01-16T11:01:10;2.40;;;0.90;;
58222;SDS011;44020;50.890;15.796;2023-01-16T11:03:41;2.30;;;0.90;;
58222;SDS011;44020;50.890;15.796;2023-01-16T11:06:12;1.20;;;0.50;;
58222;SDS011;44020;50.890;15.796;2023-01-16T11:08:42;3.40;;;1.40;;
58222;SDS011;44020;50.890;15.796;2023-01-16T11:11:11;3.70;;;0.70;;
58222;SDS011;44020;50.890;15.796;2023-01-16T11:14:00;3.40;;;0.90;;
58222;SDS011;44020;50.890;15.796;2023-01-16T11:16:56;10.40;;;5.10;;
58222;SDS011;44020;50.890;15.796;2023-01-16T11:19:42;2.60;;;1.40;;
58222;SDS011;44020;50.890;15.796;2023-01-16T11:22:22;2.40;;;1.50;;
58222;SDS011;44020;50.890;15.796;2023-01-16T11:24:58;5.40;;;1.60;;
58222;SDS011;44020;50.890;15.796;2023-01-16T11:27:30;6.40;;;2.40;;
58222;SDS011;44020;50.890;15.796;2023-01-16T11:30:11;6.00;;;2.00;;
58222;SDS011;44020;50.890;15.796;2023-01-16T11:32:43;4.30;;;1.50;;
58222;SDS011;44020;50.890;15.796;2023-01-16T11:35:15;4.30;;;1.80;;
58222;SDS011;44020;50.890;15.796;2023-01-16T11:37:44;5.20;;;1.90;;
58222;SDS011;44020;50.890;15.796;2023-01-16T11:40:17;4.10;;;2.60;;
58222;SDS011;44020;50.890;15.796;2023-01-16T11:42:55;1.00;;;0.50;;
58222;SDS011;44020;50.890;15.796;2023-01-16T11:45:46;4.60;;;1.50;;
58222;SDS011;44020;50.890;15.796;2023-01-16T11:48:37;2.60;;;1.30;;
58222;SDS011;44020;50.890;15.796;2023-01-16T11:51:18;2.70;;;0.80;;
58222;SDS011;44020;50.890;15.796;2023-01-16T11:53:50;2.00;;;0.90;;
58222;SDS011;44020;50.890;15.796;2023-01-16T12:04:26;2.50;;;1.00;;
58222;SDS011;44020;50.890;15.796;2023-01-16T12:07:09;5.30;;;1.40;;
58222;SDS011;44020;50.890;15.796;2023-01-16T12:12:39;6.20;;;1.80;;
58222;SDS011;44020;50.890;15.796;2023-01-16T12:15:42;4.10;;;1.20;;
58222;SDS011;44020;50.890;15.796;2023-01-16T12:18:39;4.00;;;1.60;;
58222;SDS011;44020;50.890;15.796;2023-01-16T12:21:21;4.30;;;1.20;;
58222;SDS011;44020;50.890;15.796;2023-01-16T12:24:18;3.70;;;1.50;;
58222;SDS011;44020;50.890;15.796;2023-01-16T12:27:18;2.00;;;1.00;;
58222;SDS011;44020;50.890;15.796;2023-01-16T12:35:38;3.30;;;1.20;;
58222;SDS011;44020;50.890;15.796;2023-01-16T12:38:39;4.80;;;1.00;;
58222;SDS011;44020;50.890;15.796;2023-01-16T12:44:20;3.00;;;1.10;;
58222;SDS011;44020;50.890;15.796;2023-01-16T12:53:03;3.70;;;0.80;;
58222;SDS011;44020;50.890;15.796;2023-01-16T12:55:51;3.00;;;0.80;;
58222;SDS011;44020;50.890;15.796;2023-01-16T12:58:22;2.80;;;1.00;;
58222;SDS011;44020;50.890;15.796;2023-01-16T13:03:41;2.50;;;1.00;;
58222;SDS011;44020;50.890;15.796;2023-01-16T13:06:21;2.10;;;1.10;;
58222;SDS011;44020;50.890;15.796;2023-01-16T13:08:58;3.00;;;0.80;;
58222;SDS011;44020;50.890;15.796;2023-01-16T13:11:38;3.60;;;0.90;;
58222;SDS011;44020;50.890;15.796;2023-01-16T13:14:32;6.80;;;1.10;;
58222;SDS011;44020;50.890;15.796;2023-01-16T13:17:05;3.80;;;1.10;;
58222;SDS011;44020;50.890;15.796;2023-01-16T13:19:38;3.40;;;1.30;;
58222;SDS011;44020;50.890;15.796;2023-01-16T13:22:18;2.90;;;1.00;;
58222;SDS011;44020;50.890;15.796;2023-01-16T13:27:56;2.80;;;1.20;;
58222;SDS011;44020;50.890;15.796;2023-01-16T13:30:27;8.10;;;4.40;;
58222;SDS011;44020;50.890;15.796;2023-01-16T13:32:59;3.90;;;2.20;;
58222;SDS011;44020;50.890;15.796;2023-01-16T13:35:35;4.70;;;1.90;;
58222;SDS011;44020;50.890;15.796;2023-01-16T13:38:21;4.90;;;2.10;;
58222;SDS011;44020;50.890;15.796;2023-01-16T13:43:59;3.40;;;1.60;;
58222;SDS011;44020;50.890;15.796;2023-01-16T13:47:11;3.80;;;1.60;;
58222;SDS011;44020;50.890;15.796;2023-01-16T13:49:44;4.00;;;2.50;;
58222;SDS011;44020;50.890;15.796;2023-01-16T13:52:24;8.70;;;4.60;;
58222;SDS011;44020;50.890;15.796;2023-01-16T13:54:57;9.60;;;4.90;;
58222;SDS011;44020;50.890;15.796;2023-01-16T13:57:28;5.90;;;1.80;;
58222;SDS011;44020;50.890;15.796;2023-01-16T13:59:56;3.10;;;1.30;;
58222;SDS011;44020;50.890;15.796;2023-01-16T14:02:38;4.50;;;1.20;;
58222;SDS011;44020;50.890;15.796;2023-01-16T14:10:42;3.90;;;1.10;;
58222;SDS011;44020;50.890;15.796;2023-01-16T14:13:30;5.40;;;1.20;;
58222;SDS011;44020;50.890;15.796;2023-01-16T14:16:00;3.70;;;1.40;;
58222;SDS011;44020;50.890;15.796;2023-01-16T14:21:42;3.90;;;1.30;;
58222;SDS011;44020;50.890;15.796;2023-01-16T14:24:37;6.50;;;2.00;;
58222;SDS011;44020;50.890;15.796;2023-01-16T14:27:09;3.70;;;1.40;;
58222;SDS011;44020;50.890;15.796;2023-01-16T14:30:23;6.50;;;2.60;;
58222;SDS011;44020;50.890;15.796;2023-01-16T14:32:32;4.80;;;2.20;;
58222;SDS011;44020;50.890;15.796;2023-01-16T14:35:12;9.30;;;3.20;;
58222;SDS011;44020;50.890;15.796;2023-01-16T14:37:41;6.20;;;1.70;;
58222;SDS011;44020;50.890;15.796;2023-01-16T14:45:32;2.70;;;1.10;;
58222;SDS011;44020;50.890;15.796;2023-01-16T14:54:18;1.80;;;0.90;;
58222;SDS011;44020;50.890;15.796;2023-01-16T14:57:17;3.70;;;1.10;;
58222;SDS011;44020;50.890;15.796;2023-01-16T15:07:45;3.50;;;1.40;;
58222;SDS011;44020;50.890;15.796;2023-01-16T15:10:17;3.80;;;1.60;;
58222;SDS011;44020;50.890;15.796;2023-01-16T15:12:51;4.10;;;1.60;;
58222;SDS011;44020;50.890;15.796;2023-01-16T15:17:51;2.40;;;1.30;;
58222;SDS011;44020;50.890;15.796;2023-01-16T15:20:41;3.60;;;1.50;;
58222;SDS011;44020;50.890;15.796;2023-01-16T15:23:35;3.40;;;1.60;;
58222;SDS011;44020;50.890;15.796;2023-01-16T15:31:08;2.90;;;1.50;;
58222;SDS011;44020;50.890;15.796;2023-01-16T15:33:59;7.50;;;3.00;;
58222;SDS011;44020;50.890;15.796;2023-01-16T15:42:00;2.90;;;1.20;;
58222;SDS011;44020;50.890;15.796;2023-01-16T15:44:50;10.80;;;7.00;;
58222;SDS011;44020;50.890;15.796;2023-01-16T15:50:21;4.00;;;1.90;;
58222;SDS011;44020;50.890;15.796;2023-01-16T15:52:58;2.60;;;1.30;;
58222;SDS011;44020;50.890;15.796;2023-01-16T15:55:28;4.20;;;1.40;;
58222;SDS011;44020;50.890;15.796;2023-01-16T15:58:02;3.80;;;1.80;;
58222;SDS011;44020;50.890;15.796;2023-01-16T16:00:35;4.20;;;1.60;;
58222;SDS011;44020;50.890;15.796;2023-01-16T16:03:14;3.20;;;1.30;;
58222;SDS011;44020;50.890;15.796;2023-01-16T16:05:49;3.30;;;1.60;;
58222;SDS011;44020;50.890;15.796;2023-01-16T16:08:26;19.30;;;9.40;;
58222;SDS011;44020;50.890;15.796;2023-01-16T16:10:56;7.80;;;3.90;;
58222;SDS011;44020;50.890;15.796;2023-01-16T16:13:44;3.30;;;1.70;;
58222;SDS011;44020;50.890;15.796;2023-01-16T16:19:06;5.30;;;2.50;;
58222;SDS011;44020;50.890;15.796;2023-01-16T16:21:36;4.80;;;2.60;;
58222;SDS011;44020;50.890;15.796;2023-01-16T16:24:33;4.30;;;1.70;;
58222;SDS011;44020;50.890;15.796;2023-01-16T16:27:12;3.00;;;1.30;;
58222;SDS011;44020;50.890;15.796;2023-01-16T16:29:47;2.80;;;1.60;;
58222;SDS011;44020;50.890;15.796;2023-01-16T16:32:18;5.90;;;2.40;;
58222;SDS011;44020;50.890;15.796;2023-01-16T16:34:53;4.30;;;1.80;;
58222;SDS011;44020;50.890;15.796;2023-01-16T16:37:22;3.10;;;1.20;;
58222;SDS011;44020;50.890;15.796;2023-01-16T16:39:53;3.00;;;1.40;;
58222;SDS011;44020;50.890;15.796;2023-01-16T16:45:19;4.90;;;2.30;;
58222;SDS011;44020;50.890;15.796;2023-01-16T16:48:13;5.40;;;2.70;;
58222;SDS011;44020;50.890;15.796;2023-01-16T16:50:47;3.70;;;2.00;;
58222;SDS011;44020;50.890;15.796;2023-01-16T16:53:15;3.90;;;1.60;;
58222;SDS011;44020;50.890;15.796;2023-01-16T16:55:51;2.80;;;1.60;;
58222;SDS011;44020;50.890;15.796;2023-01-16T16:58:38;3.30;;;1.80;;
58222;SDS011;44020;50.890;15.796;2023-01-16T17:01:12;3.90;;;1.90;;
58222;SDS011;44020;50.890;15.796;2023-01-16T17:03:41;4.00;;;1.90;;
58222;SDS011;44020;50.890;15.796;2023-01-16T17:06:12;4.60;;;2.20;;
58222;SDS011;44020;50.890;15.796;2023-01-16T17:08:43;3.90;;;2.00;;
58222;SDS011;44020;50.890;15.796;2023-01-16T17:11:10;5.50;;;2.70;;
58222;SDS011;44020;50.890;15.796;2023-01-16T17:13:38;4.50;;;2.10;;
58222;SDS011;44020;50.890;15.796;2023-01-16T17:16:17;14.70;;;7.20;;
58222;SDS011;44020;50.890;15.796;2023-01-16T17:18:46;8.90;;;5.30;;
58222;SDS011;44020;50.890;15.796;2023-01-16T17:21:17;11.10;;;5.90;;
58222;SDS011;44020;50.890;15.796;2023-01-16T17:23:45;9.00;;;5.10;;
58222;SDS011;44020;50.890;15.796;2023-01-16T17:26:14;9.00;;;4.70;;
58222;SDS011;44020;50.890;15.796;2023-01-16T17:28:42;10.00;;;6.00;;
58222;SDS011;44020;50.890;15.796;2023-01-16T17:31:19;6.60;;;4.50;;
58222;SDS011;44020;50.890;15.796;2023-01-16T17:33:47;9.90;;;6.60;;
58222;SDS011;44020;50.890;15.796;2023-01-16T17:36:22;15.90;;;10.20;;
58222;SDS011;44020;50.890;15.796;2023-01-16T17:38:51;12.30;;;7.60;;